Time;durP1;ratioP1;P1;durP2;ratioP2;P2;SDS_P1;SDS_P2;PMS_P1;PMS_P2;Temp;Humidity;BMP_temperature;BMP_pressure;BME280_temperature;BME280_humidity;BME280_pressure;Samples;Min_cycle;Max_cycle;Signal;HPM_P1;HPM_P2
2023/01/12 00:01:27;;;;;;;12.77;5.00;;;;;;;;;;5060880;28;20401;-73
2023/01/12 00:03:54;;;;;;;22.05;5.45;;;;;;;;;;5063503;28;20442;-73
2023/01/12 00:06:20;;;;;;;15.13;4.93;;;;;;;;;;5065329;28;20495;-70
2023/01/12 00:08:47;;;;;;;18.50;4.82;;;;;;;;;;5070119;28;20390;-73
2023/01/12 00:11:14;;;;;;;11.35;3.90;;;;;;;;;;5064530;28;20037;-73
2023/01/12 00:13:40;;;;;;;10.50;4.00;;;;;;;;;;5062054;28;20041;-73
2023/01/12 00:18:51;;;;;;;14.73;3.83;;;;;;;;;;5060826;28;20179;-73
2023/01/12 00:21:17;;;;;;;15.48;4.72;;;;;;;;;;5065390;28;20652;-71
2023/01/12 00:23:44;;;;;;;15.45;5.80;;;;;;;;;;5074419;28;20032;-73
2023/01/12 00:26:10;;;;;;;17.10;5.32;;;;;;;;;;5064913;28;20040;-73
2023/01/12 00:28:38;;;;;;;16.15;5.20;;;;;;;;;;5058245;28;20076;-73
2023/01/12 00:31:06;;;;;;;14.20;6.43;;;;;;;;;;5064822;28;20045;-73
2023/01/12 00:33:36;;;;;;;13.15;4.97;;;;;;;;;;5062548;28;20048;-73
2023/01/12 00:36:03;;;;;;;17.05;4.53;;;;;;;;;;5068555;28;20062;-72
2023/01/12 00:38:29;;;;;;;19.17;4.50;;;;;;;;;;5058287;28;20394;-72
2023/01/12 00:40:55;;;;;;;27.63;5.32;;;;;;;;;;5061519;28;20112;-73
2023/01/12 00:46:08;;;;;;;16.00;5.28;;;;;;;;;;5069852;28;20148;-73
2023/01/12 00:48:34;;;;;;;14.18;4.90;;;;;;;;;;5060817;28;20049;-72
2023/01/12 00:51:02;;;;;;;18.48;6.03;;;;;;;;;;5061948;28;20151;-73
2023/01/12 00:53:28;;;;;;;17.02;4.88;;;;;;;;;;5035614;28;20041;-73
2023/01/12 00:56:00;;;;;;;15.25;4.68;;;;;;;;;;5063511;28;20048;-72
2023/01/12 00:58:27;;;;;;;14.45;6.05;;;;;;;;;;5067742;28;20072;-72
2023/01/12 01:00:53;;;;;;;21.15;6.03;;;;;;;;;;5066624;28;20080;-73
2023/01/12 01:03:19;;;;;;;17.55;6.03;;;;;;;;;;5063266;28;20119;-73
2023/01/12 01:05:45;;;;;;;18.38;4.82;;;;;;;;;;5067109;28;20036;-73
2023/01/12 01:08:12;;;;;;;11.93;5.15;;;;;;;;;;5060640;28;20067;-73
2023/01/12 01:10:38;;;;;;;13.88;5.55;;;;;;;;;;5067016;28;20457;-73
2023/01/12 01:13:04;;;;;;;15.52;4.70;;;;;;;;;;5069918;28;20097;-72
2023/01/12 01:15:30;;;;;;;17.17;5.53;;;;;;;;;;5067653;28;20393;-73
2023/01/12 01:17:56;;;;;;;17.77;5.10;;;;;;;;;;5064192;28;20498;-73
2023/01/12 01:20:22;;;;;;;17.38;5.22;;;;;;;;;;5060497;28;20263;-72
2023/01/12 01:22:48;;;;;;;22.83;6.32;;;;;;;;;;5056098;28;20076;-73
2023/01/12 01:25:15;;;;;;;13.05;4.68;;;;;;;;;;5068641;28;20167;-74
2023/01/12 01:27:41;;;;;;;15.50;4.32;;;;;;;;;;5068644;28;20117;-72
2023/01/12 01:30:07;;;;;;;16.70;5.07;;;;;;;;;;5058850;28;20056;-74
2023/01/12 01:32:33;;;;;;;13.18;4.80;;;;;;;;;;5069172;28;20119;-73
2023/01/12 01:34:59;;;;;;;16.73;5.20;;;;;;;;;;5070800;28;20041;-73
2023/01/12 01:37:26;;;;;;;25.67;5.43;;;;;;;;;;5063606;28;20067;-73
2023/01/12 01:39:53;;;;;;;13.05;5.07;;;;;;;;;;5063124;28;20083;-73
2023/01/12 01:42:29;;;;;;;14.32;5.75;;;;;;;;;;5067683;28;20045;-72
2023/01/12 01:44:56;;;;;;;22.48;5.57;;;;;;;;;;5065815;28;20028;-73
2023/01/12 01:47:29;;;;;;;15.05;4.65;;;;;;;;;;5075908;28;20232;-72
2023/01/12 01:49:55;;;;;;;;;;;;;;;;;;5066205;28;20242;-72
2023/01/12 01:52:21;;;;;;;15.70;4.78;;;;;;;;;;5064025;28;20025;-73
2023/01/12 01:54:51;;;;;;;15.95;5.50;;;;;;;;;;5064501;28;20045;-73
2023/01/12 01:57:17;;;;;;;14.43;6.28;;;;;;;;;;5064089;28;20058;-72
2023/01/12 01:59:46;;;;;;;22.20;5.38;;;;;;;;;;5067782;28;20055;-73
2023/01/12 02:02:13;;;;;;;19.48;6.63;;;;;;;;;;5082077;28;20039;-73
2023/01/12 02:04:39;;;;;;;18.33;5.82;;;;;;;;;;5063815;28;20047;-72
2023/01/12 02:07:06;;;;;;;19.17;5.55;;;;;;;;;;5058273;28;20198;-73
2023/01/12 02:09:32;;;;;;;11.60;4.90;;;;;;;;;;5066093;28;20131;-72
2023/01/12 02:18:03;;;;;;;20.73;6.88;;;;;;;;;;5057926;28;20179;-72
2023/01/12 02:20:47;;;;;;;20.85;6.47;;;;;;;;;;5053777;28;20052;-72
2023/01/12 02:23:16;;;;;;;20.65;6.32;;;;;;;;;;5067587;28;20063;-74
2023/01/12 02:25:42;;;;;;;15.38;6.20;;;;;;;;;;5064070;28;20294;-73
2023/01/12 02:28:21;;;;;;;16.80;5.65;;;;;;;;;;5080049;28;20156;-73
2023/01/12 02:31:05;;;;;;;19.30;5.55;;;;;;;;;;5069236;28;20107;-72
2023/01/12 02:33:34;;;;;;;19.67;6.68;;;;;;;;;;5062784;28;20043;-74
2023/01/12 02:36:05;;;;;;;14.68;5.68;;;;;;;;;;5077373;28;20367;-72
2023/01/12 02:38:39;;;;;;;18.50;7.15;;;;;;;;;;5067558;28;20044;-73
2023/01/12 02:41:14;;;;;;;17.77;6.63;;;;;;;;;;5063907;28;20399;-72
2023/01/12 02:43:41;;;;;;;25.13;7.78;;;;;;;;;;5067981;28;20501;-73
2023/01/12 02:46:20;;;;;;;24.17;7.65;;;;;;;;;;5057167;28;20399;-72
2023/01/12 02:48:50;;;;;;;27.52;7.40;;;;;;;;;;5080831;28;20032;-73
2023/01/12 02:51:42;;;;;;;22.10;7.05;;;;;;;;;;5073679;28;20101;-73
2023/01/12 02:54:10;;;;;;;21.58;7.05;;;;;;;;;;5066097;28;20545;-73
2023/01/12 02:56:56;;;;;;;18.15;7.22;;;;;;;;;;5066911;28;20112;-73
2023/01/12 02:59:22;;;;;;;24.67;7.13;;;;;;;;;;5059121;28;20128;-73
2023/01/12 03:01:50;;;;;;;21.20;6.38;;;;;;;;;;5056030;28;20032;-74
2023/01/12 03:04:17;;;;;;;19.92;6.70;;;;;;;;;;5062609;28;20089;-73
2023/01/12 03:06:47;;;;;;;32.63;7.10;;;;;;;;;;5065256;28;20395;-72
2023/01/12 03:09:16;;;;;;;25.70;7.50;;;;;;;;;;5061164;28;20037;-72
2023/01/12 03:11:43;;;;;;;24.58;8.57;;;;;;;;;;5065200;28;20121;-73
2023/01/12 03:14:10;;;;;;;18.83;7.55;;;;;;;;;;5066826;28;20055;-73
2023/01/12 03:16:38;;;;;;;22.58;7.68;;;;;;;;;;5064009;28;20198;-73
2023/01/12 03:19:08;;;;;;;20.15;7.10;;;;;;;;;;5054183;28;20099;-73
2023/01/12 03:21:37;;;;;;;20.73;8.07;;;;;;;;;;5057071;28;20426;-73
2023/01/12 03:24:15;;;;;;;20.20;7.28;;;;;;;;;;5061454;28;20189;-73
2023/01/12 03:26:47;;;;;;;19.90;7.68;;;;;;;;;;5060112;28;20520;-73
2023/01/12 03:29:24;;;;;;;22.27;8.98;;;;;;;;;;5072263;28;20044;-73
2023/01/12 03:31:50;;;;;;;29.85;7.90;;;;;;;;;;5060621;28;20051;-73
2023/01/12 03:34:17;;;;;;;23.05;7.00;;;;;;;;;;5064695;28;20067;-73
2023/01/12 03:36:56;;;;;;;21.40;7.38;;;;;;;;;;5062126;28;20133;-73
2023/01/12 03:39:31;;;;;;;30.95;7.63;;;;;;;;;;5062135;28;20048;-73
2023/01/12 03:42:06;;;;;;;21.10;7.43;;;;;;;;;;5059904;28;20100;-73
2023/01/12 03:44:32;;;;;;;26.13;8.13;;;;;;;;;;5067354;28;20494;-73
2023/01/12 03:47:01;;;;;;;19.52;8.05;;;;;;;;;;5062041;28;20229;-73
2023/01/12 03:49:31;;;;;;;22.77;7.93;;;;;;;;;;5055811;28;20110;-73
2023/01/12 03:51:59;;;;;;;20.52;6.68;;;;;;;;;;5059876;28;20091;-74
2023/01/12 03:54:25;;;;;;;24.13;8.98;;;;;;;;;;5072177;28;20044;-73
2023/01/12 03:56:53;;;;;;;21.80;6.97;;;;;;;;;;5059399;28;20321;-73
2023/01/12 03:59:19;;;;;;;20.75;6.60;;;;;;;;;;5073730;28;20044;-73
2023/01/12 04:01:47;;;;;;;24.00;7.80;;;;;;;;;;5064193;28;20372;-74
2023/01/12 04:04:14;;;;;;;24.85;6.40;;;;;;;;;;5051002;28;20552;-73
2023/01/12 04:06:40;;;;;;;20.02;7.65;;;;;;;;;;5060161;28;20039;-73
2023/01/12 04:09:06;;;;;;;18.92;8.27;;;;;;;;;;5060681;28;20592;-73
2023/01/12 04:14:17;;;;;;;23.58;8.07;;;;;;;;;;5066102;28;20045;-73
2023/01/12 04:16:45;;;;;;;20.35;6.32;;;;;;;;;;5058695;28;20403;-72
2023/01/12 04:19:11;;;;;;;23.30;6.57;;;;;;;;;;5059199;28;20517;-73
2023/01/12 04:24:22;;;;;;;16.60;5.60;;;;;;;;;;5058447;28;20048;-73
2023/01/12 04:26:48;;;;;;;16.92;5.00;;;;;;;;;;5064851;28;20032;-73
2023/01/12 04:29:14;;;;;;;18.63;5.50;;;;;;;;;;5077022;28;20039;-73
2023/01/12 04:31:40;;;;;;;16.70;5.18;;;;;;;;;;5059337;28;20557;-73
2023/01/12 04:34:07;;;;;;;13.82;5.53;;;;;;;;;;5042526;28;20080;-73
2023/01/12 04:36:33;;;;;;;14.40;5.03;;;;;;;;;;5064107;28;20282;-72
2023/01/12 04:38:59;;;;;;;17.27;4.72;;;;;;;;;;5059147;28;20050;-73
2023/01/12 04:41:25;;;;;;;14.63;4.85;;;;;;;;;;5063884;28;20040;-73
2023/01/12 04:43:51;;;;;;;17.55;5.18;;;;;;;;;;5063571;28;20377;-73
2023/01/12 04:46:17;;;;;;;11.35;4.40;;;;;;;;;;5067806;28;20068;-73
2023/01/12 04:48:44;;;;;;;15.23;4.88;;;;;;;;;;5053532;28;20116;-73
2023/01/12 04:51:10;;;;;;;15.40;5.30;;;;;;;;;;5077108;28;20057;-73
2023/01/12 04:53:36;;;;;;;10.85;4.28;;;;;;;;;;5076433;28;20048;-71
2023/01/12 04:56:06;;;;;;;9.50;3.80;;;;;;;;;;5063070;28;20126;-73
2023/01/12 04:58:33;;;;;;;12.15;4.45;;;;;;;;;;5056486;28;20057;-73
2023/01/12 05:01:07;;;;;;;12.00;3.88;;;;;;;;;;5062939;28;20056;-73
2023/01/12 05:03:33;;;;;;;9.57;3.97;;;;;;;;;;5056975;28;20486;-73
2023/01/12 05:06:01;;;;;;;12.80;3.95;;;;;;;;;;5060623;28;20406;-73
2023/01/12 05:11:12;;;;;;;11.50;3.53;;;;;;;;;;5062625;28;20055;-73
2023/01/12 05:13:38;;;;;;;14.98;3.47;;;;;;;;;;5054713;28;20033;-72
2023/01/12 05:16:08;;;;;;;12.32;3.38;;;;;;;;;;5054663;28;20475;-72
2023/01/12 05:18:35;;;;;;;9.27;2.70;;;;;;;;;;5059694;28;20033;-73
2023/01/12 05:21:01;;;;;;;4.47;2.00;;;;;;;;;;5052669;28;20041;-73
2023/01/12 05:23:27;;;;;;;6.93;2.38;;;;;;;;;;5053728;28;20032;-72
2023/01/12 05:25:53;;;;;;;10.27;3.22;;;;;;;;;;5059179;28;20075;-72
2023/01/12 05:28:19;;;;;;;6.05;2.42;;;;;;;;;;5057352;28;20110;-73
2023/01/12 05:30:45;;;;;;;3.97;1.73;;;;;;;;;;5056430;28;20491;-73
2023/01/12 05:33:15;;;;;;;4.78;2.38;;;;;;;;;;5052316;28;20047;-73
2023/01/12 05:35:41;;;;;;;5.10;2.00;;;;;;;;;;5061103;28;20029;-73
2023/01/12 05:38:07;;;;;;;4.97;2.05;;;;;;;;;;5059285;28;20509;-73
2023/01/12 05:40:33;;;;;;;4.47;2.50;;;;;;;;;;5055493;28;20123;-73
2023/01/12 05:45:44;;;;;;;3.72;1.58;;;;;;;;;;5062347;28;20335;-73
2023/01/12 05:48:10;;;;;;;3.33;1.38;;;;;;;;;;5061936;28;20394;-73
2023/01/12 05:50:37;;;;;;;3.63;1.23;;;;;;;;;;5065356;28;20106;-73
2023/01/12 05:53:03;;;;;;;4.20;1.38;;;;;;;;;;5055479;28;20137;-71
2023/01/12 05:55:29;;;;;;;2.53;2.05;;;;;;;;;;5066095;28;20506;-72
2023/01/12 05:57:55;;;;;;;2.53;1.05;;;;;;;;;;5055799;28;20136;-73
2023/01/12 06:00:21;;;;;;;2.05;1.13;;;;;;;;;;5054299;28;20107;-71
2023/01/12 06:02:47;;;;;;;18.40;3.47;;;;;;;;;;5064119;28;20441;-72
2023/01/12 06:05:14;;;;;;;4.10;1.40;;;;;;;;;;5055131;28;20394;-72
2023/01/12 06:07:40;;;;;;;2.92;1.10;;;;;;;;;;5061338;28;20033;-71
2023/01/12 06:10:06;;;;;;;2.88;1.10;;;;;;;;;;5063224;28;20059;-70
2023/01/12 06:15:17;;;;;;;2.70;1.45;;;;;;;;;;5062801;28;20120;-71
2023/01/12 06:17:43;;;;;;;3.05;1.20;;;;;;;;;;5068224;28;20032;-71
2023/01/12 06:20:13;;;;;;;3.60;1.70;;;;;;;;;;5063748;28;20076;-71
2023/01/12 06:22:39;;;;;;;3.63;1.60;;;;;;;;;;5066722;28;20047;-71
2023/01/12 06:25:06;;;;;;;3.65;1.45;;;;;;;;;;5067146;28;20170;-71
2023/01/12 06:27:34;;;;;;;5.40;2.28;;;;;;;;;;5064283;28;20044;-71
2023/01/12 06:30:00;;;;;;;12.35;3.35;;;;;;;;;;5065647;28;20067;-71
2023/01/12 06:32:28;;;;;;;6.47;3.08;;;;;;;;;;5048504;28;20036;-71
2023/01/12 06:34:54;;;;;;;9.70;3.78;;;;;;;;;;5062612;28;20059;-71
2023/01/12 06:37:20;;;;;;;19.98;6.63;;;;;;;;;;5065973;28;20047;-71
2023/01/12 06:39:46;;;;;;;19.67;6.45;;;;;;;;;;5068904;28;20036;-73
2023/01/12 06:42:30;;;;;;;23.88;7.57;;;9.70;99.90;;;;;;5065817;28;20390;-71
2023/01/12 06:44:58;;;;;;;26.70;8.90;;;9.20;99.90;;;;;;5074374;28;20056;-72
2023/01/12 06:47:26;;;;;;;18.55;8.00;;;9.20;99.90;;;;;;5077299;28;20048;-71
2023/01/12 06:49:52;;;;;;;24.13;7.90;;;9.30;99.90;;;;;;5065767;28;20037;-70
2023/01/12 06:52:20;;;;;;;20.23;6.35;;;9.30;99.90;;;;;;5054746;28;20041;-71
2023/01/12 06:54:46;;;;;;;18.75;6.60;;;9.40;99.90;;;;;;5056606;28;20101;-71
2023/01/12 06:57:13;;;;;;;22.17;6.82;;;9.50;99.90;;;;;;5064540;28;20041;-71
2023/01/12 06:59:40;;;;;;;18.30;6.15;;;9.60;99.90;;;;;;5068976;28;20051;-70
2023/01/12 07:02:12;;;;;;;19.77;6.38;;;9.60;99.90;;;;;;5063289;28;20375;-71
2023/01/12 07:04:39;;;;;;;21.00;5.80;;;9.60;99.90;;;;;;5068569;28;20041;-71
2023/01/12 07:07:06;;;;;;;26.13;7.15;;;9.70;99.90;;;;;;5063495;28;20398;-71
2023/01/12 07:09:32;;;;;;;24.65;6.80;;;9.70;99.90;;;;;;5052047;28;20043;-71
2023/01/12 07:11:58;;;;;;;21.63;6.10;;;;;;;;;;5062554;28;20446;-69
2023/01/12 07:14:24;;;;;;;22.38;7.45;;;;;;;;;;5061576;28;20044;-71
2023/01/12 07:16:50;;;;;;;13.02;5.85;;;;;;;;;;5065244;28;20232;-71
2023/01/12 07:19:16;;;;;;;18.15;7.03;;;;;;;;;;5074563;28;20040;-73
2023/01/12 07:21:45;;;;;;;26.45;7.40;;;;;;;;;;5058009;28;20033;-70
2023/01/12 07:24:11;;;;;;;27.67;6.88;;;;;;;;;;5077700;28;20136;-71
2023/01/12 07:26:37;;;;;;;22.67;6.47;;;;;;;;;;5061033;28;20040;-71
2023/01/12 07:29:04;;;;;;;21.63;6.82;;;;;;;;;;5063272;28;20056;-71
2023/01/12 07:31:30;;;;;;;22.65;6.88;;;;;;;;;;5065564;28;20405;-71
2023/01/12 07:33:56;;;;;;;16.40;6.50;;;;;;;;;;5063402;28;20039;-71
2023/01/12 07:36:22;;;;;;;19.40;6.97;;;;;;;;;;5065363;28;20119;-71
2023/01/12 07:38:48;;;;;;;17.60;6.80;;;;;;;;;;5063312;28;20052;-72
2023/01/12 07:43:59;;;;;;;22.15;7.05;;;;;;;;;;5059995;28;20131;-72
2023/01/12 07:46:25;;;;;;;17.67;6.95;;;;;;;;;;5058579;28;20033;-71
2023/01/12 07:48:51;;;;;;;20.40;6.22;;;;;;;;;;5065540;28;20106;-71
2023/01/12 07:51:17;;;;;;;24.42;7.55;;;;;;;;;;5059821;28;20047;-71
2023/01/12 07:53:43;;;;;;;23.17;6.05;;;;;;;;;;5055564;28;20045;-71
2023/01/12 07:56:12;;;;;;;16.35;7.35;;;;;;;;;;5079763;28;20052;-71
2023/01/12 07:58:38;;;;;;;17.77;6.85;;;;;;;;;;5063513;28;20088;-71
2023/01/12 08:01:04;;;;;;;21.02;6.65;;;;;;;;;;5055285;28;20045;-71
2023/01/12 08:03:30;;;;;;;19.52;5.95;;;;;;;;;;5051963;28;20036;-71
2023/01/12 08:05:57;;;;;;;20.90;7.07;;;;;;;;;;5053671;28;20068;-71
2023/01/12 08:08:23;;;;;;;18.05;6.20;;;;;;;;;;5057239;28;20040;-71
2023/01/12 08:10:49;;;;;;;31.10;7.00;;;;;;;;;;5059577;28;20072;-71
2023/01/12 08:13:17;;;;;;;27.58;7.88;;;;;;;;;;5046504;28;20329;-72
2023/01/12 08:15:46;;;;;;;15.82;5.05;;;;;;;;;;5063866;28;20379;-71
2023/01/12 08:18:18;;;;;;;18.67;5.85;;;;;;;;;;5060006;28;20623;-70
2023/01/12 08:20:44;;;;;;;23.08;6.72;;;;;;;;;;5054001;28;20044;-71
2023/01/12 08:23:16;;;;;;;27.58;7.57;;;;;;;;;;5073701;28;20064;-72
2023/01/12 08:25:43;;;;;;;17.98;6.22;;;;;;;;;;5055495;28;20036;-71
2023/01/12 08:28:12;;;;;;;18.55;5.88;;;;;;;;;;5055165;28;20115;-71
2023/01/12 08:30:38;;;;;;;17.02;5.70;;;;;;;;;;5056758;28;20121;-71
2023/01/12 08:33:04;;;;;;;18.02;6.97;;;;;;;;;;5056163;28;20592;-72
2023/01/12 08:35:32;;;;;;;26.35;6.53;;;;;;;;;;5057312;28;20095;-72
2023/01/12 08:37:59;;;;;;;20.95;6.25;;;;;;;;;;5057945;28;20043;-73
2023/01/12 08:41:31;;;;;;;17.60;6.40;;;;;;;;;;5062758;28;20521;-72
2023/01/12 08:43:11;;;;;;;23.55;5.60;;;;;;;;;;5055242;28;20226;-72
2023/01/12 08:45:37;;;;;;;24.83;6.03;;;;;;;;;;5075472;28;20119;-72
2023/01/12 08:48:04;;;;;;;15.88;5.63;;;;;;;;;;5057831;28;20550;-72
2023/01/12 08:50:30;;;;;;;18.83;4.82;;;;;;;;;;5057984;28;20131;-72
2023/01/12 08:52:56;;;;;;;16.20;5.90;;;;;;;;;;5064897;28;20367;-72
2023/01/12 08:55:22;;;;;;;17.50;5.57;;;;;;;;;;5060117;28;20345;-72
2023/01/12 08:57:48;;;;;;;22.17;5.85;;;;;;;;;;5056829;28;20306;-72
2023/01/12 09:00:15;;;;;;;16.70;6.32;;;;;;;;;;5059715;28;20052;-72
2023/01/12 09:02:41;;;;;;;18.75;5.45;;;;;;;;;;5055099;28;20119;-72
2023/01/12 09:05:07;;;;;;;18.95;5.80;;;;;;;;;;5061769;28;20043;-72
2023/01/12 09:07:33;;;;;;;17.60;6.20;;;;;;;;;;5052314;28;20041;-71
2023/01/12 09:09:59;;;;;;;26.95;5.68;;;;;;;;;;5060787;28;20040;-72
2023/01/12 09:12:27;;;;;;;16.50;5.05;;;;;;;;;;5064547;28;20259;-72
2023/01/12 09:14:53;;;;;;;16.15;7.07;;;;;;;;;;5061110;28;20166;-71
2023/01/12 09:17:21;;;;;;;16.33;5.78;;;;;;;;;;5068405;28;20044;-72
2023/01/12 09:19:49;;;;;;;22.25;6.00;;;;;;;;;;5058586;28;20338;-72
2023/01/12 09:22:16;;;;;;;17.23;4.57;;;;;;;;;;5056848;28;20043;-73
2023/01/12 09:24:42;;;;;;;16.70;6.03;;;;;;;;;;5060837;28;20036;-72
2023/01/12 09:27:10;;;;;;;17.55;4.88;;;;;;;;;;5045824;28;20352;-73
2023/01/12 09:29:36;;;;;;;14.68;3.88;;;;;;;;;;5060715;28;20055;-72
2023/01/12 09:32:02;;;;;;;26.13;6.60;;;;;;;;;;5066534;28;20453;-73
2023/01/12 09:34:28;;;;;;;17.75;6.80;;;;;;;;;;5049158;28;20068;-73
2023/01/12 09:36:55;;;;;;;12.63;4.15;;;;;;;;;;5075219;28;20554;-73
2023/01/12 09:39:22;;;;;;;21.25;4.65;;;;;;;;;;5053488;28;20045;-72
2023/01/12 09:47:45;;;;;;;20.58;6.50;;;;;;;;;;5059525;28;20558;-73
2023/01/12 09:50:13;;;;;;;16.27;5.40;;;;;;;;;;5056884;28;20114;-73
2023/01/12 09:52:39;;;;;;;21.27;6.07;;;;;;;;;;5058081;28;20044;-73
2023/01/12 09:55:06;;;;;;;16.75;4.88;;;;;;;;;;5063199;28;20048;-72
2023/01/12 09:57:47;;;;;;;22.15;5.15;;;;;;;;;;5060196;28;20075;-73
2023/01/12 10:00:15;;;;;;;14.27;5.47;;;;;;;;;;5059681;28;20076;-72
2023/01/12 10:02:59;;;;;;;14.05;4.28;;;;;;;;;;5056049;28;20052;-72
2023/01/12 10:05:26;;;;;;;14.15;4.88;;;;;;;;;;5061295;28;20401;-73
2023/01/12 10:07:54;;;;;;;22.00;5.35;;;;;;;;;;5074382;28;20036;-72
2023/01/12 10:10:20;;;;;;;12.02;6.15;;;;;;;;;;5057800;28;20102;-72
2023/01/12 10:12:49;;;;;;;17.38;4.65;;;;;;;;;;5062957;28;20090;-72
2023/01/12 10:15:29;;;;;;;13.18;3.83;;;;;;;;;;5059974;28;20041;-73
2023/01/12 10:18:34;;;;;;;15.75;5.03;;;9.80;99.90;;;;;;5061467;28;20047;-72
2023/01/12 10:21:01;;;;;;;27.33;5.70;;;10.70;99.90;;;;;;5056612;28;20469;-72
2023/01/12 10:23:27;;;;;;;20.08;5.80;;;10.60;99.90;;;;;;5044590;28;20140;-72
2023/01/12 10:26:08;;;;;;;18.50;5.07;;;10.60;99.90;;;;;;5057854;28;20104;-73
2023/01/12 10:28:36;;;;;;;19.23;5.85;;;10.60;99.90;;;;;;5057270;28;20420;-72
2023/01/12 10:31:02;;;;;;;15.10;5.00;;;10.70;99.90;;;;;;5053448;28;20073;-73
2023/01/12 10:33:29;;;;;;;12.32;4.72;;;10.60;99.90;;;;;;5059125;28;20490;-73
2023/01/12 10:36:07;;;;;;;14.52;6.30;;;10.60;99.90;;;;;;5061473;28;20117;-72
2023/01/12 10:38:56;;;;;;;15.23;4.22;;;10.60;99.90;;;;;;5055386;28;20052;-73
2023/01/12 10:41:32;;;;;;;14.65;4.53;;;10.60;99.90;;;;;;5053875;28;20490;-72
2023/01/12 10:43:58;;;;;;;23.20;4.97;;;10.70;99.90;;;;;;5063630;28;20043;-72
2023/01/12 10:46:30;;;;;;;16.77;4.90;;;10.70;99.90;;;;;;5062851;28;20136;-72
2023/01/12 10:49:19;;;;;;;13.82;5.60;;;10.70;99.90;;;;;;5063444;28;20397;-73
2023/01/12 10:51:51;;;;;;;21.60;5.20;;;10.70;99.90;;;;;;5060966;28;20064;-73
2023/01/12 10:54:19;;;;;;;17.38;5.57;;;10.70;99.90;;;;;;5059649;28;20441;-73
2023/01/12 10:56:56;;;;;;;19.52;4.93;;;10.80;99.90;;;;;;5051483;28;20492;-73
2023/01/12 10:59:28;;;;;;;21.42;5.32;;;10.80;99.90;;;;;;5058935;28;20056;-72
2023/01/12 11:02:10;;;;;;;12.00;3.93;;;10.80;99.90;;;;;;5056038;28;20343;-73
2023/01/12 11:04:45;;;;;;;10.73;5.27;;;10.80;99.90;;;;;;5053257;28;20421;-73
2023/01/12 11:07:27;;;;;;;17.80;4.30;;;10.80;99.90;;;;;;5054264;28;20037;-73
2023/01/12 11:09:56;;;;;;;15.95;4.50;;;10.80;99.90;;;;;;5058900;28;20073;-73
2023/01/12 11:12:33;;;;;;;20.55;6.65;;;10.90;99.90;;;;;;5072757;28;20124;-73
2023/01/12 11:15:11;;;;;;;14.05;3.95;;;10.90;99.90;;;;;;5055056;28;20097;-72
2023/01/12 11:18:04;;;;;;;15.82;4.68;;;10.90;99.90;;;;;;5062630;28;20037;-73
2023/01/12 11:20:39;;;;;;;16.88;4.13;;;10.90;99.90;;;;;;5056414;28;20116;-73
2023/01/12 11:23:35;;;;;;;17.02;4.57;;;11.00;99.90;;;;;;5058736;28;20056;-73
2023/01/12 11:26:07;;;;;;;13.15;4.53;;;11.00;99.90;;;;;;5054417;28;20415;-73
2023/01/12 11:28:38;;;;;;;9.98;4.03;;;;;;;;;;5064077;28;20036;-72
2023/01/12 11:31:08;;;;;;;10.55;4.40;;;;;;;;;;5061502;28;20153;-73
2023/01/12 11:33:38;;;;;;;23.88;4.93;;;;;;;;;;5050811;28;20044;-72
2023/01/12 11:36:24;;;;;;;14.85;4.75;;;;;;;;;;5058522;28;20037;-73
2023/01/12 11:38:53;;;;;;;16.15;4.55;;;;;;;;;;5061896;28;20064;-73
2023/01/12 11:41:21;;;;;;;13.45;3.85;;;;;;;;;;5063714;28;20025;-73
2023/01/12 11:43:55;;;;;;;18.92;5.00;;;;;;;;;;5058362;28;20375;-72
2023/01/12 11:46:34;;;;;;;13.90;4.32;;;;;;;;;;5061231;28;20406;-72
2023/01/12 11:49:00;;;;;;;15.02;4.03;;;;;;;;;;5043923;28;20044;-72
2023/01/12 11:51:27;;;;;;;12.88;4.07;;;;;;;;;;5057864;28;20037;-73
2023/01/12 11:53:54;;;;;;;9.80;3.20;;;;;;;;;;5052160;28;20033;-72
2023/01/12 11:56:26;;;;;;;10.82;3.75;;;;;;;;;;5040679;28;20422;-72
2023/01/12 11:58:52;;;;;;;;;;;;;;;;;;5063782;28;20058;-72
2023/01/12 12:01:22;;;;;;;12.82;3.78;;;;;;;;;;5026973;28;19936;-73
2023/01/12 12:03:56;;;;;;;9.18;3.20;;;;;;;;;;5027215;28;20041;-73
2023/01/12 12:06:33;;;;;;;9.27;3.58;;;;;;;;;;5022496;28;20037;-72
2023/01/12 12:09:14;;;;;;;19.15;7.00;;;;;;;;;;5018468;28;20049;-73
2023/01/12 12:11:41;;;;;;;15.20;4.13;;;;;;;;;;5020157;28;20044;-73
2023/01/12 12:14:16;;;;;;;10.88;3.72;;;;;;;;;;5022812;28;20187;-72
2023/01/12 12:16:56;;;;;;;9.07;4.40;;;;;;;;;;5017161;28;20496;-73
2023/01/12 12:19:25;;;;;;;16.08;4.00;;;;;;;;;;5023268;28;20045;-72
2023/01/12 12:22:01;;;;;;;15.18;5.53;;;;;;;;;;5038575;28;20351;-73
2023/01/12 12:24:27;;;;;;;11.38;4.20;;;;;;;;;;5017277;28;20079;-72
2023/01/12 12:27:00;;;;;;;14.02;4.68;;;;;;;;;;5019180;28;20045;-72
2023/01/12 12:29:32;;;;;;;16.90;6.05;;;;;;;;;;5034569;28;20103;-72
2023/01/12 12:32:11;;;;;;;11.73;4.65;;;;;;;;;;5022440;28;20495;-73
2023/01/12 12:34:57;;;;;;;21.25;5.50;;;;;;;;;;5032812;28;20033;-72
2023/01/12 12:37:52;;;;;;;15.70;4.45;;;;;;;;;;5025298;28;20180;-72
2023/01/12 12:40:27;;;;;;;12.82;4.47;;;;;;;;;;5000217;28;20145;-72
2023/01/12 12:46:10;;;;;;;20.67;5.80;;;11.00;99.90;;;;;;4998721;28;20041;-72
2023/01/12 12:48:56;;;;;;;11.27;4.18;;;11.00;99.90;;;;;;5023333;28;20041;-73
2023/01/12 12:51:24;;;;;;;11.88;4.05;;;11.00;99.90;;;;;;5038533;28;20046;-72
2023/01/12 12:53:53;;;;;;;17.55;6.05;;;11.00;99.90;;;;;;5013283;28;20140;-73
2023/01/12 12:56:21;;;;;;;13.63;5.00;;;11.00;99.90;;;;;;5027769;28;20037;-72
2023/01/12 12:58:48;;;;;;;20.38;4.88;;;11.00;99.90;;;;;;5021654;28;20038;-73
2023/01/12 13:01:21;;;;;;;17.08;5.88;;;11.00;99.90;;;;;;5058567;28;20049;-72
2023/01/12 13:03:51;;;;;;;14.57;5.97;;;11.00;99.90;;;;;;5069497;28;20406;-72
2023/01/12 13:06:25;;;;;;;17.25;5.03;;;11.00;99.90;;;;;;5060966;28;20049;-72
2023/01/12 13:08:53;;;;;;;16.58;5.20;;;11.00;99.90;;;;;;5067430;28;20047;-72
2023/01/12 13:11:20;;;;;;;14.00;5.82;;;11.00;99.90;;;;;;5066644;28;20040;-72
2023/01/12 13:14:15;;;;;;;17.83;5.75;;;11.00;99.90;;;;;;5062906;28;20037;-72
2023/01/12 13:16:46;;;;;;;15.30;4.90;;;;;;;;;;5046620;28;20398;-72
2023/01/12 13:19:14;;;;;;;16.50;5.30;;;;;;;;;;5070915;28;20182;-72
2023/01/12 13:21:57;;;;;;;17.15;5.15;;;;;;;;;;5058943;28;20048;-72
2023/01/12 13:24:41;;;;;;;23.55;6.47;;;;;;;;;;5075364;28;20037;-72
2023/01/12 13:27:26;;;;;;;14.43;4.25;;;;;;;;;;5060975;28;20515;-73
2023/01/12 13:30:13;;;;;;;17.08;4.97;;;;;;;;;;5068271;28;20039;-72
2023/01/12 13:32:43;;;;;;;15.25;5.10;;;;;;;;;;5057258;28;20059;-72
2023/01/12 13:35:27;;;;;;;23.13;4.82;;;;;;;;;;5062033;28;20097;-72
2023/01/12 13:38:07;;;;;;;14.05;4.82;;;;;;;;;;5065447;28;20040;-71
2023/01/12 13:40:33;;;;;;;17.30;5.30;;;;;;;;;;5059187;28;20470;-72
2023/01/12 13:43:14;;;;;;;21.55;4.80;;;;;;;;;;5067226;28;20041;-73
2023/01/12 13:45:56;;;;;;;17.83;5.03;;;;;;;;;;5061135;28;20086;-73
2023/01/12 13:48:23;;;;;;;20.27;5.82;;;;;;;;;;5063499;28;20083;-72
2023/01/12 13:51:01;;;;;;;15.32;6.53;;;;;;;;;;5069421;28;20418;-71
2023/01/12 13:53:28;;;;;;;21.15;7.18;;;;;;;;;;5056144;28;20041;-72
2023/01/12 13:55:55;;;;;;;20.13;5.05;;;;;;;;;;5058275;28;20041;-72
2023/01/12 13:58:22;;;;;;;15.40;6.65;;;;;;;;;;5063333;28;20052;-72
2023/01/12 14:00:59;;;;;;;19.00;5.32;;;;;;;;;;5066256;28;20121;-72
2023/01/12 14:03:36;;;;;;;18.60;5.47;;;;;;;;;;5064528;28;20502;-72
2023/01/12 14:06:19;;;;;;;23.50;6.80;;;;;;;;;;5064148;28;20134;-72
2023/01/12 14:08:51;;;;;;;19.67;6.85;;;;;;;;;;5059908;28;20061;-73
2023/01/12 14:11:23;;;;;;;14.30;5.00;;;;;;;;;;5063234;28;20823;-72
2023/01/12 14:19:48;;;;;;;15.80;6.05;;;;;;;;;;5054568;28;20053;-73
2023/01/12 14:22:14;;;;;;;;;;;;;;;;;;5070638;28;20068;-73
2023/01/12 14:24:40;;;;;;;17.35;5.72;;;;;;;;;;5062285;28;19978;-72
2023/01/12 14:27:21;;;;;;;16.58;5.32;;;;;;;;;;5063866;28;20118;-72
2023/01/12 14:29:48;;;;;;;14.15;3.67;;;;;;;;;;5065328;28;20972;-72
2023/01/12 14:32:14;;;;;;;9.00;3.55;;;;;;;;;;5067117;28;20045;-72
2023/01/12 14:34:47;;;;;;;7.45;2.78;;;;;;;;;;5059186;28;20048;-72
2023/01/12 14:37:25;;;;;;;7.03;2.50;;;;;;;;;;5067305;28;20036;-73
2023/01/12 14:39:51;;;;;;;8.60;3.35;;;;;;;;;;5059602;28;20048;-73
2023/01/12 14:48:16;;;;;;;8.60;3.83;;;;;;;;;;5063149;28;20041;-73
2023/01/12 14:50:57;;;;;;;7.68;3.08;;;;;;;;;;5067122;28;20470;-73
2023/01/12 14:53:34;;;;;;;8.70;3.05;;;;;;;;;;5062973;28;20048;-72
2023/01/12 14:56:29;;;;;;;11.63;3.45;;;;;;;;;;5060264;28;20040;-73
2023/01/12 14:59:04;;;;;;;8.52;2.65;;;;;;;;;;5063601;28;20063;-72
2023/01/12 15:01:35;;;;;;;9.07;2.78;;;;;;;;;;5064827;28;20048;-73
2023/01/12 15:04:02;;;;;;;16.85;3.70;;;;;;;;;;5063274;28;20037;-72
2023/01/12 15:06:28;;;;;;;9.85;2.83;;;;;;;;;;5068502;28;20041;-72
2023/01/12 15:08:56;;;;;;;9.70;2.85;;;;;;;;;;5063197;28;20033;-73
2023/01/12 15:11:33;;;;;;;9.93;2.83;;;;;;;;;;5063528;28;20040;-72
2023/01/12 15:14:00;;;;;;;9.43;3.28;;;;;;;;;;5061474;28;20082;-73
2023/01/12 15:27:27;;;;;;;14.82;6.75;;;;;;;;;;5060065;28;20045;-73
2023/01/12 15:29:56;;;;;;;17.77;6.63;;;;;;;;;;5060173;28;20499;-73